Time;durP1;ratioP1;P1;durP2;ratioP2;P2;SDS_P1;SDS_P2;PMS_P1;PMS_P2;Temp;Humidity;BMP_temperature;BMP_pressure;BME280_temperature;BME280_humidity;BME280_pressure;Samples;Min_cycle;Max_cycle;Signal;HPM_P1;HPM_P2
2022/07/09 00:01:23;;;;;;;6.30;5.45;;;;;;;;;;5071253;28;20025;-82
2022/07/09 00:03:51;;;;;;;6.32;5.53;;;;;;;;;;5071266;28;20029;-85
2022/07/09 00:06:17;;;;;;;6.70;5.68;;;;;;;;;;5069811;28;20032;-82
2022/07/09 00:08:42;;;;;;;5.70;5.07;;;;;;;;;;5069930;28;20024;-82
2022/07/09 00:11:08;;;;;;;6.28;5.65;;;;;;;;;;5065744;28;20036;-84
2022/07/09 00:13:33;;;;;;;5.82;5.22;;;;;;;;;;5068853;28;20151;-83
2022/07/09 00:15:59;;;;;;;6.35;5.70;;;;;;;;;;5071096;28;20050;-83
2022/07/09 00:18:24;;;;;;;5.80;5.28;;;;;;;;;;5070973;28;20030;-83
2022/07/09 00:20:50;;;;;;;6.10;5.50;;;;;;;;;;5071243;28;20025;-82
2022/07/09 00:23:15;;;;;;;5.75;5.05;;;;;;;;;;5069945;28;20023;-82
2022/07/09 00:25:40;;;;;;;6.32;5.72;;;;;;;;;;5071066;28;20032;-82
2022/07/09 00:28:06;;;;;;;6.53;5.70;;;;;;;;;;5069910;28;20157;-82
2022/07/09 00:30:31;;;;;;;5.95;5.25;;;;;;;;;;5070879;28;20029;-82
2022/07/09 00:32:57;;;;;;;7.95;5.18;;;;;;;;;;5071108;28;20025;-83
2022/07/09 00:35:22;;;;;;;7.00;5.82;;;;;;;;;;5071182;28;20105;-82
2022/07/09 00:37:48;;;;;;;7.28;6.45;;;;;;;;;;5069707;28;20020;-83
2022/07/09 00:40:13;;;;;;;6.25;5.53;;;;;;;;;;5071079;28;20040;-83
2022/07/09 00:42:40;;;;;;;6.50;5.82;;;;;;;;;;5071274;28;20024;-83
2022/07/09 00:45:06;;;;;;;6.78;6.07;;;;;;;;;;5070224;28;20054;-83
2022/07/09 00:47:32;;;;;;;6.88;6.20;;;;;;;;;;5071987;28;20037;-83
2022/07/09 00:49:57;;;;;;;7.60;6.82;;;;;;;;;;5075116;28;20031;-83
2022/07/09 00:52:23;;;;;;;6.88;6.22;;;;;;;;;;5074037;28;20025;-83
2022/07/09 00:54:48;;;;;;;6.32;4.93;;;;;;;;;;5075029;28;20115;-82
2022/07/09 00:57:15;;;;;;;5.78;4.78;;;;;;;;;;5074780;28;20108;-82
2022/07/09 00:59:41;;;;;;;6.93;5.28;;;;;;;;;;5074821;28;20032;-83
2022/07/09 01:02:08;;;;;;;7.85;6.13;;;;;;;;;;5074819;28;20020;-83
2022/07/09 01:04:33;;;;;;;5.00;4.50;;;;;;;;;;5073876;28;20051;-83
2022/07/09 01:06:59;;;;;;;4.88;4.40;;;;;;;;;;5074813;28;20052;-83
2022/07/09 01:09:26;;;;;;;4.95;4.05;;;;;;;;;;5074782;28;20408;-83
2022/07/09 01:11:51;;;;;;;4.32;3.92;;;;;;;;;;5073102;28;20099;-83
2022/07/09 01:14:17;;;;;;;4.43;4.03;;;;;;;;;;5074046;28;20128;-82
2022/07/09 01:16:42;;;;;;;7.45;3.95;;;;;;;;;;5068478;28;20111;-84
2022/07/09 01:19:08;;;;;;;3.92;3.58;;;;;;;;;;5074078;28;20032;-83
2022/07/09 01:21:34;;;;;;;4.05;3.63;;;;;;;;;;5070365;28;20361;-83
2022/07/09 01:23:59;;;;;;;4.40;3.88;;;;;;;;;;5071301;28;20381;-83
2022/07/09 01:26:27;;;;;;;5.68;4.85;;;;;;;;;;5073371;28;20032;-81
2022/07/09 01:28:53;;;;;;;4.28;3.88;;;;;;;;;;5072793;28;20033;-83
2022/07/09 01:31:18;;;;;;;5.28;4.50;;;;;;;;;;5074818;28;20150;-83
2022/07/09 01:33:44;;;;;;;5.10;4.60;;;;;;;;;;5071089;28;20496;-84
2022/07/09 01:36:09;;;;;;;4.30;3.90;;;;;;;;;;5071985;28;20037;-83
2022/07/09 01:38:35;;;;;;;6.07;5.15;;;;;;;;;;5072645;28;20404;-83
2022/07/09 01:41:01;;;;;;;5.13;4.63;;;;;;;;;;5067337;28;20035;-82
2022/07/09 01:43:26;;;;;;;5.43;4.72;;;;;;;;;;5072836;28;20036;-83
2022/07/09 01:45:52;;;;;;;5.30;4.60;;;;;;;;;;5071971;28;20032;-83
2022/07/09 01:48:18;;;;;;;4.65;4.25;;;;;;;;;;5073067;28;20376;-82
2022/07/09 01:50:43;;;;;;;4.40;3.97;;;;;;;;;;5070272;28;20105;-83
2022/07/09 01:53:09;;;;;;;4.32;3.28;;;;;;;;;;5071254;28;20855;-83
2022/07/09 01:55:34;;;;;;;4.97;3.30;;;;;;;;;;5074353;28;20036;-83
2022/07/09 01:58:00;;;;;;;4.80;2.83;;;;;;;;;;5071931;28;20459;-83
2022/07/09 02:00:27;;;;;;;3.70;3.33;;;;;;;;;;5072699;28;20464;-83
2022/07/09 02:02:54;;;;;;;3.80;3.40;;;;;;;;;;5073987;28;20027;-83
2022/07/09 02:05:20;;;;;;;4.72;3.25;;;;;;;;;;5073956;28;20025;-82
2022/07/09 02:07:46;;;;;;;4.57;3.28;;;;;;;;;;5073965;28;20480;-83
2022/07/09 02:10:12;;;;;;;4.30;3.90;;;;;;;;;;5071491;28;20040;-83
2022/07/09 02:12:38;;;;;;;4.93;4.07;;;;;;;;;;5073871;28;20020;-83
2022/07/09 02:15:04;;;;;;;3.90;3.50;;;;;;;;;;5071960;28;20047;-84
2022/07/09 02:17:29;;;;;;;4.55;3.70;;;;;;;;;;5073644;28;20115;-83
2022/07/09 02:19:55;;;;;;;4.70;3.85;;;;;;;;;;5073667;28;20101;-83
2022/07/09 02:22:20;;;;;;;4.40;4.00;;;;;;;;;;5073511;28;20388;-84
2022/07/09 02:24:45;;;;;;;4.50;4.10;;;;;;;;;;5073660;28;20456;-83
2022/07/09 02:27:11;;;;;;;4.80;3.95;;;;;;;;;;5071571;28;20078;-83
2022/07/09 02:29:36;;;;;;;4.80;4.28;;;;;;;;;;5073596;28;20032;-83
2022/07/09 02:32:02;;;;;;;4.90;4.40;;;;;;;;;;5073414;28;20028;-84
2022/07/09 02:34:27;;;;;;;4.70;4.00;;;;;;;;;;5071746;28;20025;-84
2022/07/09 02:36:53;;;;;;;5.88;4.38;;;;;;;;;;5073703;28;20027;-84
2022/07/09 02:39:18;;;;;;;4.65;3.92;;;;;;;;;;5071756;28;20047;-84
2022/07/09 02:41:44;;;;;;;4.78;4.30;;;;;;;;;;5071830;28;20033;-83
2022/07/09 02:44:09;;;;;;;4.43;4.03;;;;;;;;;;5072818;28;20021;-83
2022/07/09 02:46:35;;;;;;;4.22;3.65;;;;;;;;;;5071507;28;20024;-85
2022/07/09 02:49:00;;;;;;;4.82;3.90;;;;;;;;;;5072951;28;20448;-84
2022/07/09 02:51:26;;;;;;;4.22;3.83;;;;;;;;;;5068202;28;20396;-84
2022/07/09 02:53:51;;;;;;;4.90;3.90;;;;;;;;;;5071705;28;20103;-85
2022/07/09 02:56:17;;;;;;;4.90;3.97;;;;;;;;;;5072941;28;20028;-83
2022/07/09 02:58:42;;;;;;;3.92;3.53;;;;;;;;;;5072964;28;20414;-85
2022/07/09 03:01:07;;;;;;;4.35;3.35;;;;;;;;;;5073195;28;20044;-84
2022/07/09 03:03:36;;;;;;;4.80;3.85;;;;;;;;;;5072940;28;20099;-85
2022/07/09 03:06:07;;;;;;;4.82;4.30;;;;;;;;;;5068841;28;20034;-84
2022/07/09 03:08:33;;;;;;;4.38;3.78;;;;;;;;;;5071076;28;20485;-84
2022/07/09 03:11:01;;;;;;;4.13;3.72;;;;;;;;;;5068836;28;20024;-84
2022/07/09 03:13:26;;;;;;;4.25;3.72;;;;;;;;;;5072211;28;20080;-84
2022/07/09 03:15:51;;;;;;;4.10;3.70;;;;;;;;;;5072940;28;20447;-84
2022/07/09 03:18:17;;;;;;;4.30;3.85;;;;;;;;;;5069519;28;20034;-84
2022/07/09 03:20:42;;;;;;;5.28;3.90;;;;;;;;;;5072539;28;20027;-84
2022/07/09 03:23:08;;;;;;;4.80;4.18;;;;;;;;;;5071323;28;20091;-84
2022/07/09 03:25:33;;;;;;;4.05;3.53;;;;;;;;;;5072481;28;20028;-84
2022/07/09 03:27:59;;;;;;;4.10;3.70;;;;;;;;;;5072350;28;20024;-86
2022/07/09 03:30:24;;;;;;;5.32;3.75;;;;;;;;;;5070277;28;20028;-84
2022/07/09 03:32:50;;;;;;;4.00;3.60;;;;;;;;;;5068346;28;20415;-85
2022/07/09 03:35:16;;;;;;;4.45;3.50;;;;;;;;;;5070171;28;20380;-85
2022/07/09 03:37:42;;;;;;;4.25;3.75;;;;;;;;;;5068762;28;20016;-84
2022/07/09 03:40:08;;;;;;;4.57;3.60;;;;;;;;;;5067982;28;20437;-85
2022/07/09 03:42:34;;;;;;;4.00;3.60;;;;;;;;;;5071763;28;20112;-85
2022/07/09 03:44:59;;;;;;;5.57;4.20;;;;;;;;;;5071526;28;20099;-84
2022/07/09 03:47:25;;;;;;;4.45;3.60;;;;;;;;;;5068737;28;20051;-83
2022/07/09 03:49:50;;;;;;;4.68;4.18;;;;;;;;;;5068747;28;20025;-85
2022/07/09 03:52:16;;;;;;;7.68;4.82;;;;;;;;;;5071376;28;20020;-84
2022/07/09 03:54:41;;;;;;;5.43;4.93;;;;;;;;;;5070526;28;20028;-83
2022/07/09 03:57:07;;;;;;;5.75;5.13;;;;;;;;;;5070702;28;20028;-84
2022/07/09 03:59:32;;;;;;;5.80;5.18;;;;;;;;;;5071619;28;20051;-84
2022/07/09 04:01:58;;;;;;;5.55;4.90;;;;;;;;;;5070174;28;20103;-84
2022/07/09 04:04:24;;;;;;;5.63;4.90;;;;;;;;;;5071641;28;20117;-84
2022/07/09 04:06:49;;;;;;;5.93;5.20;;;;;;;;;;5068739;28;20496;-84
2022/07/09 04:09:14;;;;;;;5.22;4.50;;;;;;;;;;5070522;28;20033;-84
2022/07/09 04:11:40;;;;;;;5.32;4.82;;;;;;;;;;5071269;28;20373;-85
2022/07/09 04:14:05;;;;;;;4.40;4.00;;;;;;;;;;5070330;28;20481;-85
2022/07/09 04:16:31;;;;;;;5.38;4.88;;;;;;;;;;5067794;28;20032;-85
2022/07/09 04:18:56;;;;;;;5.00;4.50;;;;;;;;;;5071222;28;20028;-84
2022/07/09 04:21:22;;;;;;;4.22;3.83;;;;;;;;;;5069780;28;20137;-83
2022/07/09 04:23:51;;;;;;;4.13;3.50;;;;;;;;;;5070885;28;20027;-82
2022/07/09 04:26:18;;;;;;;4.05;3.58;;;;;;;;;;5071340;28;20040;-84
2022/07/09 04:28:44;;;;;;;5.13;3.80;;;;;;;;;;5070784;28;20052;-84
2022/07/09 04:31:10;;;;;;;5.05;3.92;;;;;;;;;;5071019;28;20472;-84
2022/07/09 04:33:35;;;;;;;4.43;4.03;;;;;;;;;;5071234;28;20029;-83
2022/07/09 04:36:01;;;;;;;4.65;3.60;;;;;;;;;;5070333;28;20024;-85
2022/07/09 04:38:26;;;;;;;4.22;3.83;;;;;;;;;;5070020;28;20036;-84
2022/07/09 04:40:52;;;;;;;4.55;3.53;;;;;;;;;;5067998;28;20028;-83
2022/07/09 04:43:17;;;;;;;4.55;3.40;;;;;;;;;;5066969;28;20487;-84
2022/07/09 04:45:43;;;;;;;4.05;3.63;;;;;;;;;;5066353;28;20024;-85
2022/07/09 04:48:08;;;;;;;3.85;3.45;;;;;;;;;;5069482;28;20154;-83
2022/07/09 04:50:34;;;;;;;4.38;3.88;;;;;;;;;;5070318;28;20060;-83
2022/07/09 04:52:59;;;;;;;4.32;3.80;;;;;;;;;;5069896;28;20028;-86
2022/07/09 04:55:25;;;;;;;4.53;3.90;;;;;;;;;;5071489;28;20038;-84
2022/07/09 04:57:50;;;;;;;4.22;3.83;;;;;;;;;;5070154;28;20028;-84
2022/07/09 05:00:16;;;;;;;3.65;3.33;;;;;;;;;;5070737;28;20248;-83
2022/07/09 05:02:43;;;;;;;4.53;4.07;;;;;;;;;;5067935;28;20099;-82
2022/07/09 05:05:09;;;;;;;4.53;4.13;;;;;;;;;;5069619;28;20150;-84
2022/07/09 05:07:36;;;;;;;5.13;4.28;;;;;;;;;;5068324;28;20043;-86
2022/07/09 05:10:02;;;;;;;3.72;3.40;;;;;;;;;;5066929;28;20037;-84
2022/07/09 05:12:29;;;;;;;4.15;3.72;;;;;;;;;;5066685;28;20025;-81
2022/07/09 05:14:56;;;;;;;7.15;3.30;;;;;;;;;;5069051;28;20484;-83
2022/07/09 05:17:22;;;;;;;3.83;3.40;;;;;;;;;;5067968;28;20024;-84
2022/07/09 05:19:47;;;;;;;4.05;3.65;;;;;;;;;;5070205;28;20514;-81
2022/07/09 05:22:12;;;;;;;4.30;3.85;;;;;;;;;;5067794;28;20400;-81
2022/07/09 05:24:38;;;;;;;4.25;3.50;;;;;;;;;;5069947;28;20021;-82
2022/07/09 05:27:04;;;;;;;3.72;3.40;;;;;;;;;;5065021;28;20033;-84
2022/07/09 05:29:29;;;;;;;3.95;3.55;;;;;;;;;;5066114;28;20040;-81
2022/07/09 05:31:57;;;;;;;3.58;2.97;;;;;;;;;;5070261;28;20430;-83
2022/07/09 05:34:23;;;;;;;3.45;3.15;;;;;;;;;;5072006;28;20392;-83
2022/07/09 05:36:48;;;;;;;3.83;3.13;;;;;;;;;;5073566;28;20024;-85
2022/07/09 05:39:14;;;;;;;3.10;2.78;;;;;;;;;;5069580;28;20115;-83
2022/07/09 05:41:39;;;;;;;3.28;2.97;;;;;;;;;;5072951;28;20080;-82
2022/07/09 05:44:05;;;;;;;3.42;3.13;;;;;;;;;;5070842;28;20115;-82
2022/07/09 05:46:30;;;;;;;3.20;2.85;;;;;;;;;;5072174;28;20024;-81
2022/07/09 05:48:56;;;;;;;3.45;2.70;;;;;;;;;;5073606;28;20388;-85
2022/07/09 05:51:22;;;;;;;3.95;3.30;;;;;;;;;;5071156;28;20024;-86
2022/07/09 05:53:47;;;;;;;2.70;2.42;;;;;;;;;;5071722;28;20029;-83
2022/07/09 05:56:13;;;;;;;2.97;2.60;;;;;;;;;;5072459;28;20109;-84
2022/07/09 05:58:39;;;;;;;3.05;2.72;;;;;;;;;;5070665;28;20377;-83
2022/07/09 06:01:05;;;;;;;2.92;2.63;;;;;;;;;;5070100;28;20024;-82
2022/07/09 06:03:31;;;;;;;3.22;2.70;;;;;;;;;;5071224;28;20066;-82
2022/07/09 06:05:56;;;;;;;2.92;2.63;;;;;;;;;;5072147;28;20028;-82
2022/07/09 06:08:22;;;;;;;2.63;2.42;;;;;;;;;;5070449;28;20039;-89
2022/07/09 06:10:48;;;;;;;3.03;2.45;;;;;;;;;;5072117;28;20095;-85
2022/07/09 06:13:13;;;;;;;3.15;2.55;;;;;;;;;;5071058;28;20040;-84
2022/07/09 06:15:38;;;;;;;4.38;2.83;;;;;;;;;;5070990;28;20108;-82
2022/07/09 06:18:05;;;;;;;2.60;2.20;;;;;;;;;;5072459;28;20028;-82
2022/07/09 06:20:31;;;;;;;2.60;2.30;;;;;;;;;;5071779;28;21577;-83
2022/07/09 06:22:56;;;;;;;3.03;2.55;;;;;;;;;;5070789;28;20127;-82
2022/07/09 06:25:22;;;;;;;2.92;2.60;;;;;;;;;;5071835;28;20111;-84
2022/07/09 06:27:48;;;;;;;3.78;2.50;;;;;;;;;;5070230;28;20027;-83
2022/07/09 06:30:13;;;;;;;3.30;2.83;;;;;;;;;;5070413;28;20032;-83
2022/07/09 06:32:39;;;;;;;3.65;2.63;;;;;;;;;;5068029;28;20452;-85
2022/07/09 06:35:05;;;;;;;3.38;2.70;;;;;;;;;;5074935;28;20024;-83
2022/07/09 06:37:33;;;;;;;3.78;2.78;;;;;;;;;;5074086;28;20385;-83
2022/07/09 06:39:59;;;;;;;3.65;3.20;;;;;;;;;;5070831;28;20433;-82
2022/07/09 06:42:24;;;;;;;4.05;2.63;;;;;;;;;;5073406;28;20090;-82
2022/07/09 06:44:50;;;;;;;4.10;2.97;;;;;;;;;;5075345;28;20050;-84
2022/07/09 06:47:16;;;;;;;4.35;2.92;;;;;;;;;;5074048;28;20032;-83
2022/07/09 06:49:41;;;;;;;3.30;2.80;;;;;;;;;;5074248;28;20040;-82
2022/07/09 06:52:07;;;;;;;3.35;3.05;;;;;;;;;;5074083;28;21347;-82
2022/07/09 06:54:34;;;;;;;2.83;2.53;;;;;;;;;;5073988;28;20131;-83
2022/07/09 06:57:00;;;;;;;3.05;2.75;;;;;;;;;;5072013;28;20032;-83
2022/07/09 06:59:25;;;;;;;3.55;3.22;;;;;;;;;;5073529;28;20097;-82
2022/07/09 07:01:51;;;;;;;3.50;3.20;;;;;;;;;;5073162;28;20111;-82
2022/07/09 07:04:17;;;;;;;3.38;3.08;;;;;;;;;;5073827;28;20052;-81
2022/07/09 07:06:42;;;;;;;2.97;2.67;;;;;;;;;;5071433;28;20509;-82
2022/07/09 07:09:09;;;;;;;3.45;3.03;;;;;;;;;;5072533;28;20124;-82
2022/07/09 07:11:35;;;;;;;3.30;2.90;;;;;;;;;;5072198;28;20115;-82
2022/07/09 07:14:00;;;;;;;4.07;3.28;;;;;;;;;;5071449;28;20600;-81
2022/07/09 07:16:28;;;;;;;3.17;2.88;;;;;;;;;;5069327;28;20028;-82
2022/07/09 07:18:54;;;;;;;3.50;3.13;;;;;;;;;;5056654;28;20048;-83
2022/07/09 07:21:20;;;;;;;3.30;2.95;;;;;;;;;;5071810;28;20032;-81
2022/07/09 07:23:45;;;;;;;3.22;2.90;;;;;;;;;;5069627;28;20384;-81
2022/07/09 07:26:11;;;;;;;3.50;3.20;;;;;;;;;;5069101;28;20064;-82
2022/07/09 07:28:36;;;;;;;3.80;3.40;;;;;;;;;;5069152;28;20062;-83
2022/07/09 07:31:02;;;;;;;3.55;3.20;;;;;;;;;;5070324;28;20762;-84
2022/07/09 07:33:27;;;;;;;3.35;3.03;;;;;;;;;;5070907;28;20090;-83
2022/07/09 07:35:53;;;;;;;3.15;2.85;;;;;;;;;;5071091;28;20025;-83
2022/07/09 07:38:18;;;;;;;3.25;2.80;;;;;;;;;;5071838;28;20537;-83
2022/07/09 07:40:44;;;;;;;3.85;2.92;;;;;;;;;;5071658;28;20020;-83
2022/07/09 07:43:11;;;;;;;3.67;3.30;;;;;;;;;;5070590;28;20452;-82
2022/07/09 07:45:36;;;;;;;7.43;6.70;;;;;;;;;;5070564;28;20039;-86
2022/07/09 07:48:02;;;;;;;24.20;21.70;;;;;;;;;;5070789;28;20112;-84
2022/07/09 07:50:28;;;;;;;8.55;7.65;;;;;;;;;;5072476;28;20455;-84
2022/07/09 07:52:53;;;;;;;14.23;12.85;;;;;;;;;;5071127;28;20025;-84
2022/07/09 07:55:19;;;;;;;9.02;8.23;;;;;;;;;;5069830;28;20515;-85
2022/07/09 07:57:44;;;;;;;5.70;4.80;;;;;;;;;;5069045;28;20055;-86
2022/07/09 08:00:10;;;;;;;5.72;4.72;;;;;;;;;;5069496;28;20039;-85
2022/07/09 08:02:35;;;;;;;6.07;5.47;;;;;;;;;;5069612;28;20028;-85
2022/07/09 08:05:01;;;;;;;5.55;4.93;;;;;;;;;;5071334;28;20108;-86
2022/07/09 08:07:26;;;;;;;5.30;4.80;;;;;;;;;;5070694;28;20137;-84
2022/07/09 08:09:52;;;;;;;4.63;4.18;;;;;;;;;;5070905;28;20130;-87
2022/07/09 08:12:18;;;;;;;3.85;3.45;;;;;;;;;;5069141;28;20050;-85
2022/07/09 08:14:44;;;;;;;4.65;3.60;;;;;;;;;;5071406;28;20444;-86
2022/07/09 08:17:09;;;;;;;3.88;3.30;;;;;;;;;;5070616;28;20473;-83
2022/07/09 08:19:35;;;;;;;3.50;3.20;;;;;;;;;;5069536;28;20480;-83
2022/07/09 08:22:00;;;;;;;3.60;3.20;;;;;;;;;;5067267;28;20112;-84
2022/07/09 08:24:26;;;;;;;3.13;2.80;;;;;;;;;;5068993;28;20047;-85
2022/07/09 08:26:52;;;;;;;5.15;3.30;;;;;;;;;;5078195;28;20039;-83
2022/07/09 08:29:17;;;;;;;3.33;3.03;;;;;;;;;;5068943;28;20029;-85
2022/07/09 08:31:43;;;;;;;3.47;3.17;;;;;;;;;;5071394;28;20118;-85
2022/07/09 08:34:08;;;;;;;5.78;3.30;;;;;;;;;;5064214;28;20471;-82
2022/07/09 08:36:33;;;;;;;3.60;3.30;;;;;;;;;;5071528;28;20043;-83
2022/07/09 08:38:59;;;;;;;3.50;3.20;;;;;;;;;;5070687;28;20025;-85
2022/07/09 08:41:24;;;;;;;3.95;3.55;;;;;;;;;;5065034;28;20546;-85
2022/07/09 08:43:51;;;;;;;3.60;3.30;;;;;;;;;;5069343;28;20503;-85
2022/07/09 08:46:17;;;;;;;3.80;3.40;;;;;;;;;;5065519;28;20037;-84
2022/07/09 08:48:43;;;;;;;3.72;3.38;;;;;;;;;;5069952;28;20036;-86
2022/07/09 08:51:09;;;;;;;3.97;3.58;;;;;;;;;;5068842;28;20028;-82
2022/07/09 08:53:40;;;;;;;3.25;2.95;;;;;;;;;;5069569;28;20070;-84
2022/07/09 08:56:06;;;;;;;3.47;3.17;;;;;;;;;;5069268;28;20032;-86
2022/07/09 08:58:32;;;;;;;3.20;2.90;;;;;;;;;;5070172;28;20491;-86
2022/07/09 09:00:58;;;;;;;3.35;2.85;;;;;;;;;;5068812;28;20024;-82
2022/07/09 09:03:24;;;;;;;3.97;3.58;;;;;;;;;;5068932;28;20620;-84
2022/07/09 09:06:07;;;;;;;3.30;3.00;;;;;;;;;;5071554;28;20033;-84
2022/07/09 09:08:44;;;;;;;3.85;3.00;;;;;;;;;;5071505;28;20226;-85
2022/07/09 09:11:20;;;;;;;3.38;3.08;;;;;;;;;;5075639;28;20071;-83
2022/07/09 09:13:47;;;;;;;3.30;3.00;;;;;;;;;;5070437;28;20041;-85
2022/07/09 09:16:16;;;;;;;3.90;3.22;;;;;;;;;;5075705;28;20024;-84
2022/07/09 09:18:49;;;;;;;3.72;3.20;;;;;;;;;;5073455;28;20036;-84
2022/07/09 09:21:16;;;;;;;3.38;3.08;;;;;;;;;;5074278;28;20021;-86
2022/07/09 09:23:52;;;;;;;3.90;3.60;;;;;;;;;;5069926;28;20036;-85
2022/07/09 09:26:20;;;;;;;4.15;3.75;;;;;;;;;;5070377;28;20170;-83
2022/07/09 09:28:51;;;;;;;4.68;4.15;;;;;;;;;;5075420;28;20086;-83
2022/07/09 09:32:01;;;;;;;5.55;4.65;;;;;;;;;;5070622;28;20556;-84
2022/07/09 09:41:39;;;;;;;7.60;5.28;;;;;;;;;;4961617;28;20038;-85
2022/07/09 09:44:57;;;;;;;10.98;5.38;;;;;;;;;;4966147;28;20122;-84
2022/07/09 09:47:46;;;;;;;7.00;5.00;;;;;;;;;;4971880;28;20069;-83
2022/07/09 09:54:16;;;;;;;6.93;6.03;;;;;;;;;;4992402;28;20100;-83
2022/07/09 09:56:48;;;;;;;8.20;6.63;;;;;;;;;;4993183;28;20036;-83
2022/07/09 09:59:15;;;;;;;7.35;6.65;;;;;;;;;;4960596;28;20086;-83
2022/07/09 10:01:54;;;;;;;7.00;6.18;;;;;;;;;;4961779;28;20396;-84
2022/07/09 10:05:02;;;;;;;6.55;5.93;;;;;;;;;;4964413;28;20026;-87
2022/07/09 10:07:41;;;;;;;7.10;6.47;;;;;;;;;;4974639;28;20050;-85
2022/07/09 10:13:01;;;;;;;8.65;7.85;;;;;;;;;;5114774;23;20139;-85
2022/07/09 10:16:19;;;;;;;7.15;6.50;;;;;;;;;;5005942;28;20394;-86
2022/07/09 10:26:25;;;;;;;5.65;5.15;;;;;;;;;;4991010;28;20034;-85
2022/07/09 10:29:06;;;;;;;6.95;6.28;;;;;;;;;;4995350;28;20112;-84
2022/07/09 10:39:24;;;;;;;;;;;;;;;;;;;;;
2022/07/09 10:41:45;;;;;;;11.75;6.63;;;;;;;;;;4954344;28;20070;-86
2022/07/09 10:44:13;;;;;;;6.85;6.15;;;;;;;;;;4959066;28;20026;-85
2022/07/09 10:47:09;;;;;;;7.60;6.32;;;;;;;;;;4981281;28;20038;-83
2022/07/09 10:49:52;;;;;;;5.95;5.38;;;;;;;;;;4995394;28;20772;-86
2022/07/09 10:53:02;;;;;;;6.28;5.38;;;;;;;;;;4987188;28;20026;-85
2022/07/09 10:55:34;;;;;;;6.05;5.45;;;;;;;;;;4993048;28;20164;-84
2022/07/09 10:58:02;;;;;;;6.18;5.53;;;;;;;;;;4987215;28;20045;-86
2022/07/09 11:00:29;;;;;;;6.07;5.57;;;;;;;;;;4986151;28;20030;-84
2022/07/09 11:03:03;;;;;;;4.60;4.00;;;;;;;;;;4989958;28;20418;-88
2022/07/09 11:05:33;;;;;;;4.15;3.75;;;;;;;;;;4988162;28;20026;-84
2022/07/09 11:08:07;;;;;;;5.38;2.92;;;;;;;;;;4982318;28;20038;-86
2022/07/09 11:10:39;;;;;;;3.05;2.60;;;;;;;;;;4988397;28;20117;-87
2022/07/09 11:13:06;;;;;;;2.92;2.50;;;;;;;;;;4968756;28;20078;-86
2022/07/09 11:15:33;;;;;;;2.85;2.38;;;;;;;;;;4986422;28;20109;-87
2022/07/09 11:18:07;;;;;;;3.22;2.92;;;;;;;;;;4986521;28;20022;-87
2022/07/09 11:20:37;;;;;;;3.40;2.72;;;;;;;;;;5000710;28;20544;-84
2022/07/09 11:23:02;;;;;;;3.72;2.83;;;;;;;;;;4984528;28;20157;-86
2022/07/09 11:25:28;;;;;;;5.57;2.78;;;;;;;;;;4983843;28;20066;-86
2022/07/09 11:27:57;;;;;;;2.97;2.67;;;;;;;;;;4987716;28;20030;-86
2022/07/09 11:30:24;;;;;;;3.38;2.95;;;;;;;;;;4982009;28;20031;-84
2022/07/09 11:33:07;;;;;;;3.10;2.80;;;;;;;;;;4984795;28;20045;-86
2022/07/09 11:35:34;;;;;;;3.17;2.70;;;;;;;;;;4983873;28;20049;-86
2022/07/09 11:38:02;;;;;;;3.22;2.70;;;;;;;;;;4989651;28;20030;-86
2022/07/09 11:40:28;;;;;;;3.10;2.80;;;;;;;;;;4986831;28;20117;-86
2022/07/09 11:42:53;;;;;;;3.20;2.65;;;;;;;;;;4987647;28;20108;-87
2022/07/09 11:45:26;;;;;;;2.60;2.40;;;;;;;;;;4984543;28;20109;-87
2022/07/09 11:48:04;;;;;;;2.67;2.47;;;;;;;;;;5005855;28;20058;-87
2022/07/09 11:50:30;;;;;;;2.88;2.50;;;;;;;;;;4989548;28;20399;-86
2022/07/09 11:52:55;;;;;;;2.90;2.42;;;;;;;;;;4985021;28;20026;-87
2022/07/09 11:55:29;;;;;;;2.67;2.10;;;;;;;;;;4988196;28;20026;-84
2022/07/09 11:57:56;;;;;;;2.92;1.90;;;;;;;;;;4987752;28;20030;-88
2022/07/09 12:00:25;;;;;;;2.20;2.00;;;;;;;;;;4991207;28;20088;-88
2022/07/09 12:02:50;;;;;;;2.00;1.80;;;;;;;;;;4989417;28;20022;-88
2022/07/09 12:05:29;;;;;;;1.85;1.60;;;;;;;;;;5003157;28;20109;-86
2022/07/09 12:08:05;;;;;;;1.90;1.48;;;;;;;;;;4978977;28;20490;-89
2022/07/09 12:10:35;;;;;;;2.38;2.17;;;;;;;;;;4984424;28;20037;-86
2022/07/09 12:13:03;;;;;;;2.45;2.03;;;;;;;;;;4984426;28;20069;-85
2022/07/09 12:15:32;;;;;;;2.72;2.13;;;;;;;;;;4983877;28;20034;-89
2022/07/09 12:18:00;;;;;;;2.05;1.83;;;;;;;;;;4987027;28;20062;-85
2022/07/09 12:20:30;;;;;;;2.10;1.80;;;;;;;;;;4987660;28;20047;-85
2022/07/09 12:22:56;;;;;;;2.70;1.90;;;;;;;;;;4985998;28;20105;-85
2022/07/09 12:25:24;;;;;;;1.85;1.67;;;;;;;;;;4987709;28;20122;-88
2022/07/09 12:27:50;;;;;;;3.13;1.60;;;;;;;;;;4987899;28;20109;-83
2022/07/09 12:30:20;;;;;;;1.98;1.73;;;;;;;;;;4989296;28;20122;-84
2022/07/09 12:32:45;;;;;;;2.38;1.70;;;;;;;;;;4988253;28;20026;-87
2022/07/09 12:35:11;;;;;;;1.70;1.60;;;;;;;;;;4985145;28;20463;-83
2022/07/09 12:37:38;;;;;;;1.75;1.48;;;;;;;;;;4981457;28;20399;-85
2022/07/09 12:40:05;;;;;;;2.08;1.40;;;;;;;;;;4985303;28;20057;-84
2022/07/09 12:42:30;;;;;;;2.03;1.27;;;;;;;;;;4986664;28;20422;-83
2022/07/09 12:44:56;;;;;;;1.50;1.40;;;;;;;;;;4984180;28;20058;-84
2022/07/09 12:47:21;;;;;;;1.83;1.52;;;;;;;;;;4986587;28;20027;-82
2022/07/09 12:49:47;;;;;;;1.90;1.67;;;;;;;;;;4991060;28;20050;-83
2022/07/09 12:52:12;;;;;;;2.72;1.92;;;;;;;;;;4988262;28;20034;-80
2022/07/09 12:54:38;;;;;;;2.17;1.83;;;;;;;;;;4986599;28;20038;-82
2022/07/09 12:57:03;;;;;;;1.83;1.50;;;;;;;;;;4984088;28;20030;-82
2022/07/09 12:59:29;;;;;;;3.63;2.03;;;;;;;;;;4985874;28;20092;-83
2022/07/09 13:01:54;;;;;;;1.80;1.65;;;;;;;;;;4987328;28;20085;-82
2022/07/09 13:04:20;;;;;;;2.08;1.58;;;;;;;;;;4990810;28;20113;-83
2022/07/09 13:06:46;;;;;;;2.20;1.70;;;;;;;;;;4984259;28;20109;-83
2022/07/09 13:09:11;;;;;;;1.88;1.42;;;;;;;;;;4985993;28;20533;-85
2022/07/09 13:11:38;;;;;;;1.90;1.60;;;;;;;;;;4983483;28;20038;-84
2022/07/09 13:14:04;;;;;;;2.92;1.40;;;;;;;;;;4983650;28;20081;-83
2022/07/09 13:16:30;;;;;;;1.27;1.17;;;;;;;;;;4987490;28;20027;-83
2022/07/09 13:18:55;;;;;;;1.40;1.30;;;;;;;;;;4988163;28;20022;-83
2022/07/09 13:21:21;;;;;;;2.38;1.60;;;;;;;;;;4985228;28;20027;-84
2022/07/09 13:23:48;;;;;;;2.17;1.40;;;;;;;;;;4983807;28;20046;-83
2022/07/09 13:26:14;;;;;;;1.77;1.55;;;;;;;;;;4985842;28;20052;-84
2022/07/09 13:28:40;;;;;;;1.65;1.55;;;;;;;;;;4982215;28;20470;-83
2022/07/09 13:31:06;;;;;;;2.58;2.00;;;;;;;;;;4988549;28;20074;-83
2022/07/09 13:33:35;;;;;;;1.70;1.60;;;;;;;;;;4984078;28;20485;-83
2022/07/09 13:36:01;;;;;;;1.98;1.60;;;;;;;;;;4983135;28;20125;-83
2022/07/09 13:38:27;;;;;;;3.25;1.85;;;;;;;;;;4988573;28;20034;-84
2022/07/09 13:40:54;;;;;;;2.08;1.88;;;;;;;;;;4984582;28;20057;-82
2022/07/09 13:43:19;;;;;;;3.10;1.75;;;;;;;;;;4983623;28;20478;-83
2022/07/09 13:45:45;;;;;;;1.70;1.60;;;;;;;;;;4985630;28;20134;-84
2022/07/09 13:48:10;;;;;;;2.33;1.75;;;;;;;;;;4984455;28;20022;-82
2022/07/09 13:50:36;;;;;;;2.00;1.80;;;;;;;;;;4977262;28;20039;-82
2022/07/09 13:53:02;;;;;;;2.47;1.50;;;;;;;;;;4988177;28;20432;-84
2022/07/09 13:55:29;;;;;;;1.85;1.70;;;;;;;;;;4983016;28;20255;-82
2022/07/09 13:57:54;;;;;;;1.90;1.50;;;;;;;;;;4987426;28;20053;-84
2022/07/09 14:00:21;;;;;;;3.38;1.50;;;;;;;;;;4985522;28;20038;-85
2022/07/09 14:02:47;;;;;;;3.17;1.88;;;;;;;;;;4984275;28;20569;-83
2022/07/09 14:05:15;;;;;;;1.83;1.58;;;;;;;;;;4984308;28;20084;-83
2022/07/09 14:07:40;;;;;;;1.90;1.50;;;;;;;;;;4985696;28;20045;-83
2022/07/09 14:10:06;;;;;;;2.10;1.60;;;;;;;;;;4989771;28;20019;-85
2022/07/09 14:12:32;;;;;;;2.00;1.60;;;;;;;;;;4990775;28;20053;-84
2022/07/09 14:14:59;;;;;;;1.90;1.60;;;;;;;;;;4990524;28;20496;-83
2022/07/09 14:17:25;;;;;;;2.00;1.80;;;;;;;;;;4985881;28;20033;-83
2022/07/09 14:19:51;;;;;;;2.53;1.73;;;;;;;;;;4984662;28;20477;-83
2022/07/09 14:22:16;;;;;;;2.17;1.73;;;;;;;;;;4981486;28;20027;-84
2022/07/09 14:24:41;;;;;;;1.90;1.70;;;;;;;;;;4983715;28;20022;-84
2022/07/09 14:27:07;;;;;;;2.22;1.70;;;;;;;;;;4988296;28;20418;-82
2022/07/09 14:29:32;;;;;;;1.60;1.48;;;;;;;;;;4983602;28;20057;-85
2022/07/09 14:31:58;;;;;;;1.75;1.65;;;;;;;;;;4989643;28;20026;-83
2022/07/09 14:34:26;;;;;;;1.90;1.70;;;;;;;;;;4982577;28;20147;-83
2022/07/09 14:36:51;;;;;;;1.80;1.70;;;;;;;;;;4986704;28;20037;-83
2022/07/09 14:39:18;;;;;;;2.00;1.80;;;;;;;;;;4991532;28;20026;-84
2022/07/09 14:41:44;;;;;;;2.00;1.77;;;;;;;;;;5001204;28;20038;-84
2022/07/09 14:44:10;;;;;;;1.98;1.77;;;;;;;;;;4990207;28;20021;-81
2022/07/09 14:46:36;;;;;;;1.98;1.80;;;;;;;;;;4992484;28;20029;-85
2022/07/09 14:49:01;;;;;;;1.98;1.75;;;;;;;;;;4989109;28;20034;-85
2022/07/09 14:51:27;;;;;;;3.83;1.80;;;;;;;;;;4988235;28;20478;-84
2022/07/09 14:53:52;;;;;;;1.92;1.70;;;;;;;;;;5004731;28;20029;-83
2022/07/09 14:56:19;;;;;;;2.42;1.90;;;;;;;;;;4990722;28;20391;-84
2022/07/09 14:58:44;;;;;;;2.17;1.80;;;;;;;;;;4985965;28;20026;-83
2022/07/09 15:01:10;;;;;;;2.10;1.73;;;;;;;;;;4991506;28;20030;-84
2022/07/09 15:03:35;;;;;;;2.13;1.70;;;;;;;;;;4990065;28;20521;-82
2022/07/09 15:06:01;;;;;;;1.95;1.75;;;;;;;;;;4988112;28;20118;-86
2022/07/09 15:08:26;;;;;;;2.20;1.77;;;;;;;;;;4984322;28;20022;-83
2022/07/09 15:10:52;;;;;;;2.00;1.77;;;;;;;;;;4988886;28;20030;-83
2022/07/09 15:13:18;;;;;;;1.60;1.50;;;;;;;;;;4985861;28;20141;-85